createdAt,value
2018-07-13T00:00:31.230Z,100697.41
2018-07-13T00:06:04.560Z,100697.44
2018-07-13T00:08:34.096Z,100701.27
2018-07-13T00:11:05.846Z,100694.36
2018-07-13T00:13:47.775Z,100693.80
2018-07-13T00:16:23.063Z,100693.64
2018-07-13T00:19:03.992Z,100685.01
2018-07-13T00:30:07.072Z,100695.77
2018-07-13T00:32:40.897Z,100699.92
2018-07-13T00:35:16.134Z,100697.02
2018-07-13T00:37:45.843Z,100696.87
2018-07-13T00:43:12.431Z,100702.50
2018-07-13T00:54:12.593Z,100706.73
2018-07-13T00:56:41.957Z,100705.09
2018-07-13T00:59:11.452Z,100705.30
2018-07-13T01:01:43.145Z,100703.63
2018-07-13T01:04:16.405Z,100710.04
2018-07-13T01:06:45.861Z,100707.06
2018-07-13T01:12:09.363Z,100708.80
2018-07-13T01:17:38.643Z,100705.22
2018-07-13T01:23:08.984Z,100707.87
2018-07-13T01:25:44.652Z,100711.08
2018-07-13T01:31:24.496Z,100721.95
2018-07-13T01:39:36.483Z,100709.41
2018-07-13T01:42:07.003Z,100711.36
2018-07-13T01:44:37.951Z,100714.81
2018-07-13T01:47:16.165Z,100711.95
2018-07-13T01:49:51.095Z,100707.98
2018-07-13T01:52:35.900Z,100712.54
2018-07-13T01:55:12.579Z,100711.82
2018-07-13T02:00:40.424Z,100714.05
2018-07-13T02:03:23.201Z,100715.16
2018-07-13T02:17:13.957Z,100728.92
2018-07-13T02:19:47.137Z,100726.02
2018-07-13T02:22:18.177Z,100732.05
2018-07-13T02:27:38.017Z,100731.30
2018-07-13T02:30:07.874Z,100727.05
2018-07-13T02:32:43.820Z,100726.88
2018-07-13T02:35:14.662Z,100729.84
2018-07-13T02:37:46.522Z,100738.01
2018-07-13T02:43:05.254Z,100735.87
2018-07-13T02:45:44.522Z,100742.20
2018-07-13T02:48:19.399Z,100742.72
2018-07-13T02:50:50.981Z,100749.11
2018-07-13T02:53:27.841Z,100752.41
2018-07-13T02:55:58.462Z,100752.05
2018-07-13T02:58:27.974Z,100754.97
2018-07-13T03:00:59.349Z,100757.87
2018-07-13T03:11:54.060Z,100775.05
2018-07-13T03:14:23.463Z,100775.34
2018-07-13T03:16:54.208Z,100776.53
2018-07-13T03:19:23.767Z,100777.77
2018-07-13T03:33:09.429Z,100779.75
2018-07-13T03:35:41.127Z,100792.64
2018-07-13T03:38:12.397Z,100790.64
2018-07-13T03:40:48.564Z,100790.70
2018-07-13T03:43:18.491Z,100797.88
2018-07-13T03:45:48.162Z,100803.05
2018-07-13T03:48:21.690Z,100802.20
2018-07-13T03:50:53.739Z,100803.72
2018-07-13T03:53:24.431Z,100803.59
2018-07-13T03:55:57.137Z,100807.00
2018-07-13T04:04:06.041Z,100806.70
2018-07-13T04:06:36.062Z,100811.80
2018-07-13T04:15:03.033Z,100808.58
2018-07-13T04:17:34.552Z,100811.62
2018-07-13T04:20:22.153Z,100810.06
2018-07-13T04:31:32.331Z,100816.30
2018-07-13T04:34:04.704Z,100813.84
2018-07-13T04:39:29.770Z,100818.17
2018-07-13T04:44:47.280Z,100815.41
2018-07-13T04:50:15.184Z,100818.57
2018-07-13T04:52:46.676Z,100817.30
2018-07-13T05:04:03.067Z,100817.11
2018-07-13T05:06:43.129Z,100813.09
2018-07-13T05:12:06.658Z,100814.01
2018-07-13T05:20:20.595Z,100822.23
2018-07-13T05:25:46.820Z,100825.03
2018-07-13T05:28:22.306Z,100822.34
2018-07-13T05:30:54.960Z,100830.33
2018-07-13T05:47:31.827Z,100839.53
2018-07-13T05:55:38.005Z,100845.84
2018-07-13T06:00:59.784Z,100840.28
2018-07-13T06:03:39.180Z,100844.25
2018-07-13T06:14:41.870Z,100847.64
2018-07-13T06:20:06.948Z,100843.09
2018-07-13T06:22:45.719Z,100851.73
2018-07-13T06:30:56.417Z,100858.16
2018-07-13T06:33:27.064Z,100853.47
2018-07-13T06:44:36.619Z,100854.43
2018-07-13T06:55:45.122Z,100859.87
2018-07-13T07:01:43.205Z,100853.77
2018-07-13T07:07:10.784Z,100853.27
2018-07-13T07:12:35.057Z,100858.35
2018-07-13T07:37:47.797Z,100872.66
2018-07-13T07:40:22.487Z,100871.83
2018-07-13T07:43:01.083Z,100874.48
2018-07-13T07:45:39.892Z,100864.59
2018-07-13T07:48:16.661Z,100867.56
2018-07-13T07:50:47.879Z,100869.95
2018-07-13T07:56:16.193Z,100875.87
2018-07-13T07:58:49.732Z,100877.51
2018-07-13T08:01:20.201Z,100869.47
2018-07-13T08:03:53.525Z,100870.75
2018-07-13T08:06:33.749Z,100867.21
2018-07-13T08:09:06.040Z,100868.91
2018-07-13T08:14:25.509Z,100874.38
2018-07-13T09:10:20.092Z,100864.50
2018-07-13T09:15:44.571Z,100863.91
2018-07-13T09:18:19.479Z,100865.83
2018-07-13T09:20:56.906Z,100863.39
2018-07-13T09:23:29.141Z,100861.08
2018-07-13T09:26:01.487Z,100860.78
2018-07-13T09:28:32.154Z,100871.64
2018-07-13T09:31:07.615Z,100868.47
2018-07-13T09:33:40.660Z,100871.02
2018-07-13T09:41:50.230Z,100874.25
2018-07-13T09:44:23.418Z,100876.92
2018-07-13T09:46:57.705Z,100874.66
2018-07-13T09:57:54.796Z,100879.69
2018-07-13T10:06:15.529Z,100880.73
2018-07-13T10:08:48.458Z,100878.50
2018-07-13T10:11:19.266Z,100870.30
2018-07-13T10:16:44.891Z,100876.47
2018-07-13T10:24:54.682Z,100870.42
2018-07-13T10:27:24.240Z,100868.45
2018-07-13T10:29:53.921Z,100869.73
2018-07-13T10:32:24.586Z,100863.78
2018-07-13T10:34:54.300Z,100864.94
2018-07-13T10:37:29.752Z,100863.05
2018-07-13T10:40:00.110Z,100865.73
2018-07-13T10:45:36.021Z,100864.21
2018-07-13T10:48:06.262Z,100860.98
2018-07-13T10:50:44.409Z,100856.47
2018-07-13T10:58:54.999Z,100857.97
2018-07-13T11:01:25.609Z,100853.22
2018-07-13T11:03:58.518Z,100853.81
2018-07-13T11:06:41.287Z,100855.77
2018-07-13T11:09:16.789Z,100856.59
2018-07-13T11:11:49.173Z,100846.23
2018-07-13T11:17:12.080Z,100843.81
2018-07-13T11:22:29.546Z,100847.66
2018-07-13T11:25:06.791Z,100836.48
2018-07-13T11:27:45.398Z,100828.91
2018-07-13T11:33:09.234Z,100827.17
2018-07-13T11:35:40.268Z,100832.11
2018-07-13T11:38:12.359Z,100819.87
2018-07-13T11:40:43.855Z,100834.38
2018-07-13T11:43:14.139Z,100827.02
2018-07-13T11:45:47.873Z,100817.69
2018-07-13T11:48:21.973Z,100821.78
2018-07-13T11:51:10.970Z,100814.43
2018-07-13T11:53:58.990Z,100815.56
2018-07-13T12:05:02.805Z,100812.30
2018-07-13T12:07:36.889Z,100807.27
2018-07-13T12:10:07.581Z,100799.79
2018-07-13T12:12:43.731Z,100804.30
2018-07-13T12:18:08.951Z,100805.73
2018-07-13T12:20:38.389Z,100802.67
2018-07-13T12:23:09.996Z,100797.56
2018-07-13T12:25:39.832Z,100796.31
2018-07-13T12:28:15.589Z,100795.17
2018-07-13T12:30:45.273Z,100797.77
2018-07-13T12:33:23.244Z,100787.66
2018-07-13T12:35:52.672Z,100791.07
2018-07-13T12:38:27.249Z,100794.77
2018-07-13T12:41:01.475Z,100785.69
2018-07-13T12:43:36.461Z,100783.80
2018-07-13T12:46:22.308Z,100784.86
2018-07-13T12:48:54.882Z,100791.30
2018-07-13T12:51:32.890Z,100789.56
2018-07-13T12:54:12.553Z,100793.23
2018-07-13T12:59:35.724Z,100788.11
2018-07-13T13:02:05.161Z,100789.80
2018-07-13T13:07:26.046Z,100789.80
2018-07-13T13:10:06.422Z,100781.41
2018-07-13T13:15:28.059Z,100780.77
2018-07-13T13:18:08.245Z,100782.05
2018-07-13T13:20:41.007Z,100782.01
2018-07-13T13:23:10.546Z,100784.62
2018-07-13T13:25:41.165Z,100771.08
2018-07-13T13:28:13.336Z,100775.48
2018-07-13T13:30:42.903Z,100774.03
2018-07-13T13:33:12.427Z,100773.38
2018-07-13T13:35:44.553Z,100777.38
2018-07-13T13:38:16.463Z,100772.56
2018-07-13T13:40:54.212Z,100770.62
2018-07-13T13:49:17.160Z,100753.09
2018-07-13T13:54:42.346Z,100764.75
2018-07-13T13:57:12.873Z,100762.22
2018-07-13T14:08:24.143Z,100752.84
2018-07-13T14:11:04.932Z,100730.77
2018-07-13T14:13:46.347Z,100744.24
2018-07-13T14:16:20.299Z,100749.19
2018-07-13T14:18:56.889Z,100745.99
2018-07-13T14:21:27.366Z,100740.89
2018-07-13T14:26:57.704Z,100743.89
2018-07-13T14:29:33.920Z,100739.10
2018-07-13T14:32:04.957Z,100739.38
2018-07-13T14:37:37.067Z,100745.20
2018-07-13T14:40:18.170Z,100737.65
2018-07-13T14:45:41.637Z,100743.67
2018-07-13T14:48:14.477Z,100740.95
2018-07-13T14:53:38.196Z,100735.09
2018-07-13T14:59:01.611Z,100742.37
2018-07-13T15:04:19.196Z,100740.16
2018-07-13T15:06:48.870Z,100738.66
2018-07-13T15:20:35.568Z,100727.83
2018-07-13T15:28:54.301Z,100727.91
2018-07-13T15:42:50.948Z,100727.52
2018-07-13T15:45:33.785Z,100720.94
2018-07-13T15:48:05.201Z,100725.23
2018-07-13T15:50:46.770Z,100724.53
2018-07-13T15:53:26.259Z,100720.14
2018-07-13T15:55:56.972Z,100713.48
2018-07-13T15:58:46.102Z,100712.41
2018-07-13T16:01:34.720Z,100718.09
2018-07-13T16:04:11.501Z,100722.42
2018-07-13T16:12:29.978Z,100728.28
2018-07-13T16:20:42.427Z,100727.95
2018-07-13T16:23:14.566Z,100729.12
2018-07-13T16:31:34.774Z,100723.86
2018-07-13T16:42:41.157Z,100722.26
2018-07-13T16:45:17.405Z,100729.61
2018-07-13T16:53:26.806Z,100719.28
2018-07-13T16:55:57.262Z,100728.47
2018-07-13T16:58:31.471Z,100714.49
2018-07-13T17:01:03.336Z,100721.26
2018-07-13T17:03:32.744Z,100722.32
2018-07-13T17:06:09.235Z,100720.23
2018-07-13T17:08:54.620Z,100719.25
2018-07-13T17:11:29.829Z,100728.31
2018-07-13T17:13:59.136Z,100726.08
2018-07-13T17:16:28.790Z,100727.92
2018-07-13T17:19:06.465Z,100735.23
2018-07-13T17:30:12.776Z,100732.07
2018-07-13T17:35:28.801Z,100729.44
2018-07-13T17:38:02.572Z,100737.11
2018-07-13T17:40:35.092Z,100739.44
2018-07-13T17:46:00.653Z,100734.08
2018-07-13T17:48:34.385Z,100732.66
2018-07-13T17:51:16.837Z,100739.98
2018-07-13T17:56:48.708Z,100741.41
2018-07-13T18:02:09.073Z,100745.38
2018-07-13T18:04:40.078Z,100750.81
2018-07-13T18:07:17.778Z,100755.41
2018-07-13T18:09:50.224Z,100750.40
2018-07-13T18:12:23.418Z,100752.25
2018-07-13T18:14:53.741Z,100759.84
2018-07-13T18:17:30.228Z,100757.59
2018-07-13T18:20:00.962Z,100757.66
2018-07-13T18:22:31.461Z,100764.39
2018-07-13T18:25:02.459Z,100773.84
2018-07-13T18:27:40.334Z,100765.73
2018-07-13T18:32:58.794Z,100772.84
2018-07-13T18:38:18.815Z,100788.30
2018-07-13T18:40:57.213Z,100792.11
2018-07-13T18:49:05.848Z,100799.64
2018-07-13T18:51:40.181Z,100808.54
2018-07-13T18:54:11.534Z,100803.44
2018-07-13T18:56:47.686Z,100809.52
2018-07-13T19:07:46.278Z,100822.16
2018-07-13T19:10:17.382Z,100819.75
2018-07-13T19:12:50.396Z,100835.91
2018-07-13T19:15:23.761Z,100832.98
2018-07-13T19:17:55.163Z,100833.11
2018-07-13T19:20:26.405Z,100840.41
2018-07-13T19:22:59.485Z,100837.40
2018-07-13T19:25:36.844Z,100842.69
2018-07-13T19:28:11.309Z,100848.00
2018-07-13T19:30:45.003Z,100851.53
2018-07-13T19:33:15.599Z,100854.89
2018-07-13T19:38:40.735Z,100865.61
2018-07-13T19:41:15.761Z,100869.07
2018-07-13T19:43:50.622Z,100868.58
2018-07-13T19:46:20.298Z,100871.69
2018-07-13T19:48:52.680Z,100882.67
2018-07-13T19:51:32.988Z,100877.32
2018-07-13T19:54:14.368Z,100883.80
2018-07-13T19:56:52.821Z,100886.98
2018-07-13T19:59:23.675Z,100889.03
2018-07-13T20:07:30.286Z,100891.96
2018-07-13T20:09:59.755Z,100895.18
2018-07-13T20:12:35.497Z,100890.08
2018-07-13T20:15:08.162Z,100886.89
2018-07-13T20:17:38.395Z,100887.94
2018-07-13T20:20:08.040Z,100892.56
2018-07-13T20:22:37.369Z,100893.19
2018-07-13T20:25:14.408Z,100889.52
2018-07-13T20:27:48.562Z,100891.63
2018-07-13T20:30:17.605Z,100893.33
2018-07-13T20:32:47.729Z,100896.90
2018-07-13T20:38:07.374Z,100892.83
2018-07-13T20:40:36.442Z,100899.19
2018-07-13T20:43:07.708Z,100897.95
2018-07-13T21:02:37.843Z,100899.38
2018-07-13T21:08:09.210Z,100895.98
2018-07-13T21:10:41.916Z,100888.95
2018-07-13T21:13:13.115Z,100890.66
2018-07-13T21:15:42.710Z,100887.09
2018-07-13T21:18:12.140Z,100893.61
2018-07-13T21:20:45.286Z,100892.03
2018-07-13T21:23:14.837Z,100897.28
2018-07-13T21:28:35.536Z,100898.08
2018-07-13T21:31:04.729Z,100900.55
2018-07-13T21:36:22.071Z,100897.91
2018-07-13T22:09:50.155Z,100906.70
2018-07-13T22:34:44.428Z,100906.45
2018-07-13T22:37:14.219Z,100908.33
2018-07-13T22:39:47.253Z,100915.17
2018-07-13T22:59:25.372Z,100922.21
2018-07-13T23:01:55.481Z,100923.64
2018-07-13T23:04:28.864Z,100921.47
2018-07-13T23:07:11.561Z,100924.63
2018-07-13T23:09:41.724Z,100921.22
2018-07-13T23:12:14.022Z,100924.77
2018-07-13T23:14:43.128Z,100919.50
2018-07-13T23:17:12.037Z,100924.20
2018-07-13T23:22:29.251Z,100921.10
2018-07-13T23:27:46.792Z,100921.83
2018-07-13T23:30:16.418Z,100917.77
2018-07-13T23:32:45.367Z,100921.65
2018-07-13T23:35:15.355Z,100921.52
2018-07-13T23:37:45.552Z,100916.25
2018-07-13T23:40:15.887Z,100918.48
2018-07-13T23:42:46.340Z,100914.08
2018-07-13T23:45:15.411Z,100922.13
2018-07-13T23:47:44.526Z,100921.15
